San Bernardino International Airport
KSBD : rendu visible

Aérodrome :











RETROUVEZ-NOUS SUR...

 
LOGIN :

S'inscrire | Disclaimer

   EN    FR    IT 

 









Légende :    VFR   VFR Marginal   IFR   IFR Intensif   IFR Très Intensif
Visi : 
Plafond : 
>= 8 km
>= 3000ft
5 à 8 km
1000 à 3000 ft
1500m à 5 km
500 à 1000 ft
800 à 1500m
200 à 500 ft
< 800m
< 200 ft
Symboles :   Orages  Brouillard  Fortes neiges  Fortes précipitations  Vent > 20 kt






- Altitude de l'aérodrome : 1159 ft


KSBD - San Bernardino International

DERNIER METAR :
  • 221646Z 00000KT 7SM SCT025 15/07 A3005

METARs EXPIRÉS :
  • 221547Z 10006KT 7SM BKN050 SCT090 14/07 A3003
  • 221450Z 00000KT 7SM BKN033 SCT090 14/07 A3002

TAF KSBD
Valide du 22 à 12h jusqu'au 23 à 12h UTC


221142Z 2212/2312 VRB05KT P6SM OVC100
FM221600 24007KT 6SM -SHRA VCTS BKN025CB
FM222300 24013KT P6SM SCT030 OVC100
FM230700 26005KT P6SM BKN025



MET'MAP, la Météo Aéronautique d'un coup d'oeil ! - Copyright ORBIFLY Décembre 2007 - Disclaimer

ORBIFLY MET'MAP TEAM :

Programmation & Développement : Alexandra Zaïnal
Sur une idée originale de : Baudouin d'Aumeries
Assistance à la programmation : Marc-Olivier Méhu
Soutien technique & logistique : Manuel Goepfert

Contact : metmap@orbifly.com




SOURCES & CREDITS :

   NOAA       Earth
Advisory